Time;durP1;ratioP1;P1;durP2;ratioP2;P2;SDS_P1;SDS_P2;PMS_P1;PMS_P2;Temp;Humidity;BMP_temperature;BMP_pressure;BME280_temperature;BME280_humidity;BME280_pressure;Samples;Min_cycle;Max_cycle;Signal;HPM_P1;HPM_P2
2023/07/21 00:01:07;;;;;;;7.38;4.00;;;15.20;99.90;;;;;;4999343;28;20445;-78
2023/07/21 00:03:33;;;;;;;6.63;3.73;;;15.40;99.90;;;;;;5015361;28;20431;-78
2023/07/21 00:06:00;;;;;;;6.43;3.83;;;15.60;99.90;;;;;;5014570;28;20438;-78
2023/07/21 00:08:28;;;;;;;6.47;3.40;;;15.30;99.90;;;;;;5011956;28;20426;-78
2023/07/21 00:10:57;;;;;;;8.73;3.85;;;15.20;99.90;;;;;;4999802;28;20498;-78
2023/07/21 00:13:23;;;;;;;5.57;3.40;;;15.30;99.90;;;;;;4998958;28;20548;-78
2023/07/21 00:15:49;;;;;;;6.18;3.58;;;15.30;99.90;;;;;;5013327;28;20427;-78
2023/07/21 00:18:15;;;;;;;5.70;3.50;;;14.90;99.90;;;;;;4979932;28;20524;-78
2023/07/21 00:20:41;;;;;;;6.67;3.63;;;15.10;99.90;;;;;;4998282;28;20434;-78
2023/07/21 00:23:07;;;;;;;8.73;4.10;;;15.00;99.90;;;;;;5013791;28;20438;-78
2023/07/21 00:25:33;;;;;;;7.07;3.73;;;14.90;99.90;;;;;;5009929;28;20918;-78
2023/07/21 00:27:59;;;;;;;6.50;3.63;;;;;;;;;;4983038;28;20431;-78
2023/07/21 00:30:25;;;;;;;6.32;3.88;;;15.00;99.90;;;;;;5010684;28;20445;-78
2023/07/21 00:32:50;;;;;;;7.93;3.90;;;14.70;99.90;;;;;;4995395;28;20903;-78
2023/07/21 00:35:16;;;;;;;5.97;3.80;;;14.90;99.90;;;;;;4997569;28;20423;-78
2023/07/21 00:37:42;;;;;;;10.40;4.77;;;14.80;99.90;;;;;;4996602;28;20447;-78
2023/07/21 00:40:18;;;;;;;8.18;4.28;;;14.70;99.90;;;;;;5012887;28;20427;-77
2023/07/21 00:42:45;;;;;;;9.50;4.80;;;14.60;99.90;;;;;;4994946;28;20785;-78
2023/07/21 00:45:14;;;;;;;10.85;4.55;;;14.50;99.90;;;;;;4994777;28;20436;-78
2023/07/21 00:47:40;;;;;;;7.10;4.50;;;14.50;99.90;;;;;;5007381;28;20459;-78
2023/07/21 00:50:08;;;;;;;8.63;4.70;;;14.60;99.90;;;;;;4997981;28;20399;-78
2023/07/21 00:52:34;;;;;;;8.15;4.57;;;14.70;99.90;;;;;;4984748;28;20415;-78
2023/07/21 00:55:01;;;;;;;8.02;4.75;;;;;;;;;;5013741;28;20419;-78
2023/07/21 00:57:27;;;;;;;7.40;4.55;;;14.10;99.90;;;;;;5013759;28;20787;-78
2023/07/21 00:59:53;;;;;;;6.90;4.68;;;;;;;;;;4997957;28;20422;-77
2023/07/21 01:02:19;;;;;;;8.75;4.40;;;14.30;99.90;;;;;;5014235;28;20411;-78
2023/07/21 01:04:45;;;;;;;7.07;4.38;;;14.10;99.90;;;;;;5014034;28;20931;-78
2023/07/21 01:07:11;;;;;;;7.68;4.88;;;;;;;;;;5012870;28;20477;-78
2023/07/21 01:09:39;;;;;;;9.82;4.70;;;13.90;99.90;;;;;;5014176;28;20494;-78
2023/07/21 01:12:06;;;;;;;7.60;4.80;;;13.80;99.90;;;;;;5012290;28;20415;-78
2023/07/21 01:14:36;;;;;;;7.28;4.40;;;14.10;99.90;;;;;;5013012;28;20826;-77
2023/07/21 01:17:03;;;;;;;7.38;4.60;;;13.80;99.90;;;;;;5012560;28;20430;-77
2023/07/21 01:19:30;;;;;;;6.90;4.15;;;13.90;99.90;;;;;;5014034;28;20837;-77
2023/07/21 01:22:09;;;;;;;7.13;4.25;;;14.00;99.90;;;;;;5012662;28;20430;-78
2023/07/21 01:24:37;;;;;;;7.95;5.00;;;14.10;99.90;;;;;;5013755;28;20853;-77
2023/07/21 01:27:05;;;;;;;7.45;4.82;;;13.90;99.90;;;;;;4995662;28;20423;-77
2023/07/21 01:29:34;;;;;;;9.57;4.70;;;14.00;99.90;;;;;;4996192;28;20422;-78
2023/07/21 01:32:04;;;;;;;11.00;4.53;;;13.70;99.90;;;;;;5013828;28;20411;-77
2023/07/21 01:34:32;;;;;;;7.55;4.63;;;13.80;99.90;;;;;;5004344;28;20424;-78
2023/07/21 01:37:00;;;;;;;8.33;4.80;;;13.50;99.90;;;;;;5012537;28;20458;-78
2023/07/21 01:39:27;;;;;;;7.70;5.03;;;13.60;99.90;;;;;;5013414;28;20407;-78
2023/07/21 01:41:54;;;;;;;7.72;5.18;;;;;;;;;;5013135;28;20835;-78
2023/07/21 01:44:21;;;;;;;7.18;5.13;;;;;;;;;;5004322;28;20505;-78
2023/07/21 01:46:48;;;;;;;8.23;4.63;;;;;;;;;;4993737;28;20428;-78
2023/07/21 01:49:15;;;;;;;7.20;4.90;;;13.10;99.90;;;;;;5003353;28;20476;-79
2023/07/21 01:51:42;;;;;;;7.75;5.13;;;13.30;99.90;;;;;;4961171;28;20429;-78
2023/07/21 01:54:18;;;;;;;10.32;5.30;;;13.30;99.90;;;;;;4977648;28;20897;-79
2023/07/21 01:56:51;;;;;;;8.35;5.72;;;13.60;99.90;;;;;;4988525;28;20441;-79
2023/07/21 01:59:21;;;;;;;7.97;5.35;;;13.40;99.90;;;;;;5016436;28;20415;-79
2023/07/21 02:01:48;;;;;;;9.23;5.60;;;13.40;99.90;;;;;;4998570;28;20413;-79
2023/07/21 02:04:15;;;;;;;8.68;5.68;;;;;;;;;;5016013;28;20430;-79
2023/07/21 02:06:41;;;;;;;9.13;5.40;;;;;;;;;;5007709;28;20424;-79
2023/07/21 02:09:07;;;;;;;11.23;5.28;;;;;;;;;;4996888;28;20417;-78
2023/07/21 02:11:33;;;;;;;9.32;5.20;;;13.40;99.90;;;;;;5002151;28;20903;-79
2023/07/21 02:13:59;;;;;;;9.35;5.68;;;13.60;99.90;;;;;;5000576;28;20422;-79
2023/07/21 02:16:26;;;;;;;8.87;5.23;;;;;;;;;;5016589;28;20423;-79
2023/07/21 02:18:52;;;;;;;9.95;5.22;;;;;;;;;;5016162;28;20484;-78
2023/07/21 02:21:18;;;;;;;6.97;5.15;;;13.60;99.90;;;;;;5016012;28;20407;-78
2023/07/21 02:23:44;;;;;;;8.82;5.13;;;13.70;99.90;;;;;;5014911;28;20433;-79
2023/07/21 02:26:10;;;;;;;8.95;5.32;;;13.40;99.90;;;;;;5000535;28;20732;-79
2023/07/21 02:28:36;;;;;;;10.88;5.97;;;;;;;;;;4983457;28;20759;-79
2023/07/21 02:31:04;;;;;;;9.70;5.40;;;13.50;99.90;;;;;;5015611;28;20413;-79
2023/07/21 02:33:30;;;;;;;7.10;5.18;;;;;;;;;;5015843;28;20450;-78
2023/07/21 02:35:57;;;;;;;7.97;5.10;;;13.30;99.90;;;;;;5016475;28;20410;-79
2023/07/21 02:38:24;;;;;;;9.15;5.60;;;;;;;;;;4998198;28;20431;-79
2023/07/21 02:40:50;;;;;;;8.37;5.63;;;13.30;99.90;;;;;;5016398;28;20418;-79
2023/07/21 02:43:17;;;;;;;10.53;5.40;;;13.40;99.90;;;;;;4967169;28;20425;-78
2023/07/21 02:45:53;;;;;;;9.55;6.15;;;13.30;99.90;;;;;;5014382;28;20786;-79
2023/07/21 02:48:20;;;;;;;11.52;6.50;;;13.10;99.90;;;;;;5015079;28;20426;-78
2023/07/21 02:50:51;;;;;;;7.90;5.57;;;13.20;99.90;;;;;;5016282;28;20403;-79
2023/07/21 02:53:19;;;;;;;7.72;5.60;;;13.10;99.90;;;;;;5014562;28;20422;-78
2023/07/21 02:55:45;;;;;;;8.32;5.78;;;;;;;;;;5013456;28;20576;-79
2023/07/21 02:58:13;;;;;;;10.23;5.63;;;13.00;99.90;;;;;;5015305;28;20423;-79
2023/07/21 03:00:40;;;;;;;7.72;5.60;;;13.10;99.90;;;;;;4983890;28;20752;-79
2023/07/21 03:03:08;;;;;;;8.38;5.95;;;12.80;99.90;;;;;;5014479;28;20941;-79
2023/07/21 03:05:34;;;;;;;8.13;6.00;;;;;;;;;;4999098;28;20453;-79
2023/07/21 03:08:00;;;;;;;9.27;6.28;;;;;;;;;;5015134;28;20423;-79
2023/07/21 03:10:26;;;;;;;10.73;6.25;;;13.00;99.90;;;;;;4997683;28;20509;-79
2023/07/21 03:12:52;;;;;;;10.77;6.13;;;;;;;;;;4998157;28;20493;-79
2023/07/21 03:15:18;;;;;;;12.07;6.15;;;;;;;;;;5016073;28;20453;-79
2023/07/21 03:17:44;;;;;;;9.43;5.90;;;;;;;;;;5015750;28;20460;-79
2023/07/21 03:20:12;;;;;;;9.75;6.07;;;;;;;;;;5003722;28;20424;-79
2023/07/21 03:22:42;;;;;;;9.85;6.40;;;;;;;;;;5013773;28;20418;-79
2023/07/21 03:25:09;;;;;;;9.43;6.10;;;12.90;99.90;;;;;;4998563;28;20431;-79
2023/07/21 03:27:35;;;;;;;9.23;5.90;;;12.70;99.90;;;;;;4980853;28;20919;-79
2023/07/21 03:30:01;;;;;;;9.25;6.07;;;;;;;;;;4979684;28;20576;-78
2023/07/21 03:32:28;;;;;;;10.77;6.45;;;;;;;;;;5011123;28;20428;-79
2023/07/21 03:34:55;;;;;;;9.85;6.22;;;;;;;;;;4979632;28;20412;-78
2023/07/21 03:37:25;;;;;;;10.65;6.40;;;;;;;;;;5001300;28;20438;-78
2023/07/21 03:39:52;;;;;;;10.17;6.10;;;;;;;;;;5010906;28;20892;-79
2023/07/21 03:42:18;;;;;;;8.88;5.90;;;12.30;99.90;;;;;;4988698;28;20469;-79
2023/07/21 03:44:47;;;;;;;9.35;6.63;;;;;;;;;;4982646;28;20481;-79
2023/07/21 03:47:14;;;;;;;10.50;6.70;;;12.30;99.90;;;;;;5009838;28;20424;-78
2023/07/21 03:49:40;;;;;;;12.00;7.28;;;12.40;99.90;;;;;;4992118;28;20424;-79
2023/07/21 03:52:06;;;;;;;12.27;7.57;;;;;;;;;;5016497;28;20484;-78
2023/07/21 03:54:32;;;;;;;9.50;6.72;;;;;;;;;;5015228;28;20411;-79
2023/07/21 03:56:58;;;;;;;9.40;6.60;;;;;;;;;;5010692;28;20430;-78
2023/07/21 03:59:25;;;;;;;10.00;6.90;;;;;;;;;;5013933;28;20431;-79
2023/07/21 04:01:51;;;;;;;11.80;7.20;;;;;;;;;;5014304;28;20407;-79
2023/07/21 04:04:17;;;;;;;10.38;6.97;;;12.60;99.90;;;;;;4998182;28;20434;-79
2023/07/21 04:06:43;;;;;;;12.73;6.70;;;;;;;;;;5014161;28;20423;-79
2023/07/21 04:09:12;;;;;;;14.68;7.47;;;12.50;99.90;;;;;;5014705;28;20407;-79
2023/07/21 04:11:38;;;;;;;12.27;7.30;;;12.50;99.90;;;;;;5014520;28;20395;-80
2023/07/21 04:14:04;;;;;;;13.47;7.27;;;;;;;;;;4995017;28;20481;-79
2023/07/21 04:16:30;;;;;;;10.23;7.20;;;;;;;;;;5004994;28;20473;-80
2023/07/21 04:18:56;;;;;;;13.55;8.25;;;;;;;;;;5011980;28;20822;-80
2023/07/21 04:21:22;;;;;;;11.68;7.65;;;12.80;99.90;;;;;;5014403;28;20416;-79
2023/07/21 04:23:48;;;;;;;13.02;8.38;;;;;;;;;;4966576;28;20429;-79
2023/07/21 04:26:16;;;;;;;12.33;7.70;;;12.70;99.90;;;;;;4995212;28;20482;-79
2023/07/21 04:28:42;;;;;;;13.40;7.38;;;;;;;;;;4996661;28;20980;-79
2023/07/21 04:31:11;;;;;;;13.25;7.60;;;12.80;99.90;;;;;;5014602;28;20403;-80
2023/07/21 04:33:38;;;;;;;14.57;7.88;;;;;;;;;;4996400;28;20423;-81
2023/07/21 04:36:04;;;;;;;10.77;6.95;;;;;;;;;;4999915;28;20430;-78
2023/07/21 04:38:31;;;;;;;11.45;6.82;;;13.10;99.90;;;;;;5018047;28;20426;-80
2023/07/21 04:40:57;;;;;;;10.70;7.10;;;13.00;99.90;;;;;;5014173;28;20887;-80
2023/07/21 04:43:23;;;;;;;13.80;7.55;;;;;;;;;;5009020;28;20426;-79
2023/07/21 04:45:49;;;;;;;12.32;7.30;;;;;;;;;;4979822;28;20433;-79
2023/07/21 04:48:15;;;;;;;13.02;6.97;;;12.90;99.90;;;;;;5012868;28;20501;-79
2023/07/21 04:50:43;;;;;;;13.07;7.70;;;12.90;99.90;;;;;;4991472;28;20872;-79
2023/07/21 04:53:10;;;;;;;10.82;7.35;;;;;;;;;;5001932;28;20422;-80
2023/07/21 04:55:37;;;;;;;11.75;7.15;;;13.20;99.90;;;;;;4993468;28;20592;-79
2023/07/21 04:58:03;;;;;;;13.18;7.43;;;;;;;;;;5004622;28;20419;-80
2023/07/21 05:00:29;;;;;;;10.45;6.72;;;;;;;;;;5004064;28;20429;-80
2023/07/21 05:02:55;;;;;;;11.45;6.88;;;13.40;99.90;;;;;;5012237;28;20903;-80
2023/07/21 05:05:20;;;;;;;11.68;6.85;;;13.50;99.90;;;;;;4979442;28;20440;-80
2023/07/21 05:07:46;;;;;;;9.63;6.53;;;13.50;99.90;;;;;;5006281;28;20491;-80
2023/07/21 05:10:12;;;;;;;9.93;6.78;;;13.70;99.90;;;;;;4994633;28;20437;-80
2023/07/21 05:12:37;;;;;;;10.80;5.80;;;13.70;99.90;;;;;;4977958;28;20431;-80
2023/07/21 05:15:04;;;;;;;12.00;5.93;;;;;;;;;;5012868;28;20745;-80
2023/07/21 05:17:29;;;;;;;9.90;6.53;;;13.60;99.90;;;;;;5006548;28;20508;-77
2023/07/21 05:19:55;;;;;;;11.17;6.33;;;;;;;;;;5003054;28;20528;-77
2023/07/21 05:22:21;;;;;;;10.70;6.05;;;13.90;99.90;;;;;;4993100;28;20435;-75
2023/07/21 05:24:47;;;;;;;9.30;5.97;;;;;;;;;;4994302;28;20777;-76
2023/07/21 05:27:13;;;;;;;10.60;6.05;;;13.80;99.90;;;;;;4988768;28;20426;-79
2023/07/21 05:29:38;;;;;;;11.47;6.07;;;13.80;99.90;;;;;;4997669;28;20403;-77
2023/07/21 05:32:06;;;;;;;11.70;6.10;;;;;;;;;;5015186;28;20426;-77
2023/07/21 05:34:32;;;;;;;8.97;6.10;;;13.90;99.90;;;;;;5002325;28;20510;-79
2023/07/21 05:36:59;;;;;;;9.32;5.60;;;14.10;99.90;;;;;;5001752;28;20411;-79
2023/07/21 05:39:28;;;;;;;8.85;5.68;;;13.90;99.90;;;;;;5011345;28;20436;-78
2023/07/21 05:41:58;;;;;;;11.57;5.90;;;14.30;99.90;;;;;;5006166;28;20577;-76
2023/07/21 05:44:24;;;;;;;7.95;5.20;;;14.30;99.90;;;;;;5021414;28;20524;-76
2023/07/21 05:46:49;;;;;;;9.55;5.70;;;14.30;99.90;;;;;;4994642;28;20410;-76
2023/07/21 05:49:16;;;;;;;9.57;5.23;;;14.40;99.90;;;;;;4978721;28;21331;-76
2023/07/21 05:51:43;;;;;;;8.98;5.40;;;14.30;99.90;;;;;;4995544;28;20445;-76
2023/07/21 05:54:08;;;;;;;10.65;5.57;;;14.40;99.90;;;;;;4997058;28;20516;-75
2023/07/21 05:56:34;;;;;;;9.23;5.40;;;14.50;99.90;;;;;;5000262;28;20548;-75
2023/07/21 05:59:00;;;;;;;9.33;5.60;;;14.80;99.90;;;;;;5010559;28;20418;-76
2023/07/21 06:01:27;;;;;;;10.97;5.70;;;14.80;99.90;;;;;;5027793;28;20435;-75
2023/07/21 06:03:53;;;;;;;10.15;5.68;;;15.00;99.90;;;;;;5012408;28;20439;-76
2023/07/21 06:06:19;;;;;;;10.60;5.10;;;15.00;99.90;;;;;;4980466;28;20420;-76
2023/07/21 06:08:44;;;;;;;7.67;5.27;;;15.20;99.90;;;;;;5012132;28;20415;-76
2023/07/21 06:11:11;;;;;;;7.55;5.28;;;15.10;99.90;;;;;;4996344;28;21020;-75
2023/07/21 06:13:37;;;;;;;8.68;5.07;;;15.30;99.90;;;;;;4999060;28;20513;-75
2023/07/21 06:16:02;;;;;;;8.15;4.40;;;15.50;99.90;;;;;;4985319;28;20533;-76
2023/07/21 06:18:28;;;;;;;7.75;4.20;;;15.50;99.90;;;;;;5007237;28;20432;-75
2023/07/21 06:20:54;;;;;;;14.67;5.23;;;15.90;99.90;;;;;;4988570;28;20494;-75
2023/07/21 06:23:20;;;;;;;22.88;5.13;;;16.00;99.90;;;;;;4982116;28;20430;-75
2023/07/21 06:25:46;;;;;;;10.25;4.50;;;15.90;99.90;;;;;;5011879;28;20485;-74
2023/07/21 06:28:12;;;;;;;23.07;5.43;;;16.30;99.90;;;;;;4999330;28;20808;-75
2023/07/21 06:30:38;;;;;;;28.23;5.95;;;16.40;99.90;;;;;;5011319;28;20467;-75
2023/07/21 06:33:07;;;;;;;27.75;6.28;;;16.20;99.90;;;;;;5011440;28;20472;-75
2023/07/21 06:35:33;;;;;;;9.15;3.58;;;16.50;99.90;;;;;;5010652;28;20438;-76
2023/07/21 06:38:00;;;;;;;6.68;3.33;;;16.70;99.90;;;;;;5009051;28;20435;-76
2023/07/21 06:40:26;;;;;;;6.13;3.30;;;16.70;99.90;;;;;;5011398;28;20421;-76
2023/07/21 06:42:52;;;;;;;6.63;3.50;;;17.30;99.90;;;;;;4991264;28;20459;-76
2023/07/21 06:45:17;;;;;;;8.35;3.92;;;17.30;99.90;;;;;;5013058;28;20781;-76
2023/07/21 06:47:43;;;;;;;9.10;3.97;;;17.40;99.90;;;;;;5010815;28;20437;-76
2023/07/21 06:50:09;;;;;;;7.60;3.40;;;17.50;99.90;;;;;;5011350;28;20587;-76
2023/07/21 06:52:35;;;;;;;6.18;3.25;;;17.50;99.90;;;;;;4994484;28;20413;-75
2023/07/21 06:55:02;;;;;;;7.53;2.97;;;17.70;99.90;;;;;;5010032;28;20422;-76
2023/07/21 06:57:28;;;;;;;7.65;2.78;;;17.70;99.90;;;;;;4975285;28;20430;-76
2023/07/21 06:59:54;;;;;;;6.03;2.80;;;18.00;99.90;;;;;;5001583;28;20425;-76
2023/07/21 07:02:19;;;;;;;6.47;2.60;;;18.00;99.90;;;;;;5010369;28;20935;-76
2023/07/21 07:04:47;;;;;;;3.13;1.80;;;18.30;99.90;;;;;;5012527;28;20520;-76
2023/07/21 07:07:13;;;;;;;5.95;2.20;;;18.10;99.90;;;;;;5012566;28;20432;-76
2023/07/21 07:09:39;;;;;;;5.90;2.22;;;18.10;99.90;;;;;;5009364;28;20467;-77
2023/07/21 07:12:06;;;;;;;5.20;2.55;;;18.60;99.90;;;;;;5025517;28;20470;-76
2023/07/21 07:14:32;;;;;;;4.47;2.40;;;18.40;99.90;;;;;;5005074;28;20466;-76
2023/07/21 07:16:57;;;;;;;3.93;2.70;;;18.50;99.90;;;;;;5006555;28;20420;-77
2023/07/21 07:19:23;;;;;;;4.93;2.60;;;18.90;99.90;;;;;;4991740;28;20405;-77
2023/07/21 07:21:49;;;;;;;4.40;2.72;;;19.20;99.90;;;;;;5006710;28;20480;-77
2023/07/21 07:24:14;;;;;;;5.00;2.63;;;18.80;99.90;;;;;;5010333;28;20437;-78
2023/07/21 07:26:40;;;;;;;4.33;2.60;;;18.40;99.90;;;;;;5011352;28;20784;-77
2023/07/21 07:29:06;;;;;;;6.60;2.60;;;18.60;99.90;;;;;;5008515;28;20429;-77
2023/07/21 07:31:32;;;;;;;5.60;2.65;;;18.40;99.90;;;;;;5012171;28;20425;-76
2023/07/21 07:33:58;;;;;;;5.43;2.70;;;18.50;99.90;;;;;;4994586;28;20982;-75
2023/07/21 07:36:24;;;;;;;5.45;3.20;;;18.70;99.90;;;;;;4994836;28;20409;-75
2023/07/21 07:38:50;;;;;;;5.50;3.00;;;18.80;99.90;;;;;;5011924;28;20470;-76
2023/07/21 07:41:17;;;;;;;5.40;3.00;;;18.90;99.90;;;;;;5011928;28;20500;-76
2023/07/21 07:43:43;;;;;;;3.90;2.60;;;18.90;99.90;;;;;;4994686;28;20550;-79
2023/07/21 07:46:09;;;;;;;5.03;2.50;;;18.90;99.90;;;;;;5011126;28;20404;-78
2023/07/21 07:48:35;;;;;;;4.85;3.13;;;19.30;99.90;;;;;;4988291;28;20438;-78
2023/07/21 07:51:06;;;;;;;4.93;2.60;;;19.70;99.90;;;;;;5005776;28;20412;-77
2023/07/21 07:53:32;;;;;;;4.43;2.88;;;19.70;99.90;;;;;;5006944;28;20464;-78
2023/07/21 07:55:58;;;;;;;5.57;2.25;;;19.60;99.90;;;;;;5007653;28;20427;-77
2023/07/21 07:58:24;;;;;;;3.47;2.23;;;19.70;99.90;;;;;;4972923;28;20421;-77
2023/07/21 08:00:55;;;;;;;3.97;2.30;;;20.00;99.90;;;;;;4999661;28;20438;-79
2023/07/21 08:03:21;;;;;;;3.10;2.20;;;20.00;99.90;;;;;;5008674;28;20563;-77
2023/07/21 08:05:48;;;;;;;5.90;2.80;;;20.20;99.90;;;;;;5003110;28;20805;-75
2023/07/21 08:08:14;;;;;;;3.90;2.28;;;20.10;99.90;;;;;;5006173;28;20507;-74
2023/07/21 08:10:41;;;;;;;4.63;2.40;;;20.10;99.90;;;;;;5008121;28;20939;-74
2023/07/21 08:13:08;;;;;;;4.93;2.40;;;20.10;99.90;;;;;;5008429;28;20470;-74
2023/07/21 08:15:34;;;;;;;4.82;2.78;;;20.60;99.90;;;;;;4998224;28;20533;-74
2023/07/21 08:18:00;;;;;;;4.25;2.33;;;19.60;99.90;;;;;;5007036;28;20847;-75
2023/07/21 08:20:25;;;;;;;4.40;2.55;;;20.50;99.90;;;;;;5004414;28;21011;-74
2023/07/21 08:22:51;;;;;;;5.32;2.60;;;20.30;99.90;;;;;;4999853;28;20567;-74
2023/07/21 08:25:18;;;;;;;5.45;2.00;;;20.40;99.90;;;;;;5001309;28;20555;-74
2023/07/21 08:27:45;;;;;;;3.63;2.05;;;20.50;99.90;;;;;;5007337;28;20517;-74
2023/07/21 08:30:11;;;;;;;3.50;1.83;;;20.50;99.90;;;;;;4995743;28;20467;-74
2023/07/21 08:32:38;;;;;;;4.67;2.20;;;20.30;99.90;;;;;;5010408;28;20451;-74
2023/07/21 08:35:05;;;;;;;2.75;1.40;;;20.90;99.90;;;;;;4994497;28;20428;-74
2023/07/21 08:37:32;;;;;;;2.47;1.42;;;21.10;99.90;;;;;;5003901;28;20429;-73
2023/07/21 08:39:57;;;;;;;3.22;1.52;;;21.20;99.90;;;;;;5010236;28;20437;-73
2023/07/21 08:42:25;;;;;;;2.55;1.40;;;21.20;99.90;;;;;;4991088;28;20432;-73
2023/07/21 08:44:53;;;;;;;2.90;1.58;;;21.30;99.90;;;;;;5003489;28;20453;-73
2023/07/21 08:47:19;;;;;;;2.90;1.65;;;20.70;99.90;;;;;;5009802;28;20488;-75
2023/07/21 08:49:46;;;;;;;3.78;1.35;;;20.60;99.90;;;;;;4993409;28;20420;-73
2023/07/21 08:52:12;;;;;;;2.10;1.27;;;21.00;99.90;;;;;;5004473;28;20432;-75
2023/07/21 08:54:38;;;;;;;2.40;1.40;;;20.80;99.90;;;;;;4986989;28;20494;-75
2023/07/21 08:57:04;;;;;;;2.30;1.40;;;21.30;99.90;;;;;;5003628;28;20440;-79
2023/07/21 08:59:33;;;;;;;2.47;1.50;;;21.50;99.90;;;;;;5003653;28;20507;-75
2023/07/21 09:01:59;;;;;;;2.63;1.43;;;21.70;99.90;;;;;;5006463;28;20519;-75
2023/07/21 09:04:25;;;;;;;1.88;1.02;;;22.30;99.90;;;;;;4949814;28;20908;-76
2023/07/21 09:06:53;;;;;;;2.80;1.40;;;22.40;99.90;;;;;;5006187;28;20440;-76
2023/07/21 09:09:20;;;;;;;2.95;1.40;;;22.50;99.90;;;;;;5008402;28;20424;-76
2023/07/21 09:11:47;;;;;;;3.50;1.33;;;22.90;99.90;;;;;;5006657;28;20440;-74
2023/07/21 09:14:13;;;;;;;1.73;1.17;;;23.00;99.90;;;;;;5006972;28;20432;-75
2023/07/21 09:16:39;;;;;;;2.10;1.20;;;23.00;99.10;;;;;;4996743;28;20773;-75
2023/07/21 09:19:07;;;;;;;3.87;1.40;;;23.00;99.30;;;;;;4972497;28;20500;-74
2023/07/21 09:21:35;;;;;;;3.00;1.30;;;22.80;99.10;;;;;;4991654;28;22239;-75
2023/07/21 09:24:02;;;;;;;1.98;1.30;;;22.80;99.90;;;;;;5000201;28;20854;-75
2023/07/21 09:26:28;;;;;;;2.70;1.30;;;22.70;99.80;;;;;;5006912;28;20472;-75
2023/07/21 09:28:54;;;;;;;2.60;1.45;;;21.40;98.90;;;;;;5018017;28;20455;-76
2023/07/21 09:31:34;;;;;;;3.60;1.70;;;23.40;99.70;;;;;;4983362;28;20452;-75
2023/07/21 09:34:08;;;;;;;3.20;1.80;;;23.30;98.50;;;;;;4992806;28;20429;-75
2023/07/21 09:36:34;;;;;;;3.28;1.80;;;23.00;99.40;;;;;;5004642;28;20500;-76
2023/07/21 09:39:04;;;;;;;3.10;1.77;;;22.50;99.90;;;;;;5003770;28;20942;-73
2023/07/21 09:41:32;;;;;;;2.83;1.90;;;22.40;99.90;;;;;;4973006;28;20458;-74
2023/07/21 09:43:59;;;;;;;3.10;1.80;;;24.00;99.90;;;;;;4993206;28;20460;-74
2023/07/21 09:46:25;;;;;;;2.65;1.50;;;22.40;99.90;;;;;;5007204;28;20431;-75
2023/07/21 09:48:51;;;;;;;5.33;2.10;;;22.30;99.90;;;;;;5006389;28;20453;-76
2023/07/21 09:51:18;;;;;;;5.05;2.13;;;22.00;99.90;;;;;;5011504;28;20918;-75
2023/07/21 09:53:44;;;;;;;5.10;2.28;;;22.10;99.90;;;;;;5002503;28;20439;-76
2023/07/21 09:56:11;;;;;;;3.42;2.20;;;21.90;99.90;;;;;;5001404;28;20441;-76
2023/07/21 09:58:45;;;;;;;4.00;1.80;;;21.80;99.90;;;;;;4997422;28;20438;-76
2023/07/21 10:01:12;;;;;;;2.43;1.63;;;21.50;99.90;;;;;;5000902;28;20478;-75
2023/07/21 10:03:38;;;;;;;3.28;1.75;;;21.90;99.90;;;;;;5005987;28;20428;-75
2023/07/21 10:06:06;;;;;;;2.70;1.70;;;22.00;99.90;;;;;;5007434;28;20443;-75
2023/07/21 10:08:36;;;;;;;4.43;2.08;;;21.60;99.90;;;;;;5006413;28;20435;-74
2023/07/21 10:11:04;;;;;;;2.70;1.60;;;21.80;99.90;;;;;;4983539;28;20787;-75
2023/07/21 10:13:32;;;;;;;3.10;1.77;;;22.10;99.90;;;;;;5001464;28;20781;-75
2023/07/21 10:16:07;;;;;;;3.05;1.80;;;22.10;99.90;;;;;;5001755;28;20467;-75
2023/07/21 10:18:33;;;;;;;3.85;1.80;;;22.30;99.90;;;;;;5004906;28;20523;-76
2023/07/21 10:20:59;;;;;;;3.73;1.90;;;22.30;99.90;;;;;;5005086;28;20460;-75
2023/07/21 10:23:30;;;;;;;2.93;1.90;;;22.60;99.90;;;;;;5020866;28;20444;-74
2023/07/21 10:26:04;;;;;;;2.93;1.90;;;22.80;99.50;;;;;;5010601;28;20479;-74
2023/07/21 10:28:35;;;;;;;3.80;1.60;;;22.60;99.20;;;;;;4995671;28;20420;-76
2023/07/21 10:31:26;;;;;;;2.63;1.60;;;22.50;99.30;;;;;;5001273;28;20428;-75
2023/07/21 10:34:04;;;;;;;6.32;2.67;;;22.80;99.30;;;;;;4981457;28;20430;-75
2023/07/21 10:37:02;;;;;;;2.95;1.75;;;23.20;98.80;;;;;;5002483;28;20470;-75
2023/07/21 10:39:34;;;;;;;3.33;1.80;;;23.20;98.60;;;;;;5004554;28;20507;-76
2023/07/21 10:42:05;;;;;;;5.38;2.13;;;22.90;98.40;;;;;;4992445;28;20430;-76
2023/07/21 10:44:37;;;;;;;3.25;1.80;;;22.90;98.20;;;;;;5010154;28;21071;-73
2023/07/21 10:47:09;;;;;;;3.40;1.70;;;23.10;98.30;;;;;;5011565;28;20420;-73
2023/07/21 10:49:35;;;;;;;3.40;1.80;;;23.30;98.50;;;;;;5008753;28;20465;-74
2023/07/21 10:52:02;;;;;;;3.40;1.60;;;23.20;99.30;;;;;;4990991;28;20486;-73
2023/07/21 10:54:28;;;;;;;2.70;1.63;;;23.00;99.50;;;;;;5000890;28;20936;-72
2023/07/21 10:56:53;;;;;;;3.30;1.60;;;23.20;99.90;;;;;;4999548;28;20550;-72
2023/07/21 10:59:19;;;;;;;3.00;1.60;;;22.90;99.90;;;;;;5002291;28;20447;-72
2023/07/21 11:01:47;;;;;;;3.08;1.80;;;23.20;99.50;;;;;;5005319;28;20432;-73
2023/07/21 11:04:14;;;;;;;3.03;2.10;;;23.10;99.00;;;;;;5005737;28;20522;-73
2023/07/21 11:06:42;;;;;;;2.90;2.00;;;23.10;99.70;;;;;;4984792;28;20420;-73
2023/07/21 11:09:11;;;;;;;3.10;2.10;;;22.90;99.90;;;;;;5000853;28;20504;-73
2023/07/21 11:11:41;;;;;;;3.97;2.20;;;22.80;99.90;;;;;;5009904;28;20429;-73
2023/07/21 11:14:12;;;;;;;3.22;2.30;;;23.00;99.90;;;;;;4991624;28;20878;-74
2023/07/21 11:16:44;;;;;;;4.60;2.45;;;23.00;99.90;;;;;;5007783;28;20426;-73
2023/07/21 11:19:10;;;;;;;6.25;3.03;;;23.00;99.90;;;;;;5014718;28;20863;-74
2023/07/21 11:21:37;;;;;;;6.32;2.80;;;22.90;99.90;;;;;;5010363;28;20516;-74
2023/07/21 11:24:04;;;;;;;3.40;2.28;;;23.00;99.90;;;;;;4991372;28;20431;-74
2023/07/21 11:26:30;;;;;;;4.80;2.50;;;22.80;99.90;;;;;;5008388;28;20444;-74
2023/07/21 11:28:58;;;;;;;4.25;2.72;;;22.70;99.90;;;;;;5007966;28;20425;-75
2023/07/21 11:31:25;;;;;;;4.00;2.40;;;22.70;99.90;;;;;;4997509;28;20426;-74
2023/07/21 11:33:51;;;;;;;5.10;2.40;;;22.80;99.90;;;;;;5002684;28;20447;-74
2023/07/21 11:36:23;;;;;;;3.33;2.33;;;22.90;99.90;;;;;;5008513;28;20908;-75
2023/07/21 11:39:06;;;;;;;4.53;2.25;;;23.00;99.90;;;;;;5001750;28;20964;-75
2023/07/21 11:41:42;;;;;;;3.87;2.03;;;23.50;99.90;;;;;;4987632;28;20927;-75
2023/07/21 11:44:16;;;;;;;4.35;2.20;;;23.40;99.30;;;;;;4991875;28;20782;-75
2023/07/21 11:46:42;;;;;;;4.57;2.30;;;23.50;99.50;;;;;;4996135;28;20429;-74
2023/07/21 11:49:14;;;;;;;3.65;2.17;;;23.60;99.40;;;;;;4992093;28;20432;-75
2023/07/21 11:51:48;;;;;;;3.85;1.98;;;23.60;99.20;;;;;;5010149;28;20920;-74
2023/07/21 11:54:27;;;;;;;4.43;2.20;;;23.40;98.00;;;;;;4998353;28;20408;-75
2023/07/21 11:56:54;;;;;;;3.20;2.20;;;23.40;97.80;;;;;;5010311;28;20440;-75
2023/07/21 11:59:21;;;;;;;6.05;2.40;;;23.30;99.00;;;;;;5010905;28;20719;-75
2023/07/21 12:01:47;;;;;;;5.63;2.47;;;23.30;99.20;;;;;;5010628;28;20507;-75
2023/07/21 12:04:14;;;;;;;3.00;1.90;;;23.20;99.20;;;;;;5000675;28;20449;-76
2023/07/21 12:06:40;;;;;;;4.07;1.80;;;23.20;99.30;;;;;;5005062;28;20551;-75
2023/07/21 12:09:07;;;;;;;3.45;1.95;;;23.10;98.80;;;;;;4990524;28;20431;-75
2023/07/21 12:11:39;;;;;;;3.10;1.85;;;23.50;99.00;;;;;;5010675;28;20497;-75
2023/07/21 12:14:05;;;;;;;4.53;2.03;;;23.70;98.00;;;;;;5008955;28;20456;-75
2023/07/21 12:16:35;;;;;;;4.20;2.00;;;24.00;96.70;;;;;;5007945;28;20531;-75
2023/07/21 12:19:03;;;;;;;3.47;2.13;;;24.10;96.00;;;;;;5009491;28;20429;-76
2023/07/21 12:21:30;;;;;;;3.58;2.00;;;24.40;95.50;;;;;;5004978;28;20907;-75
2023/07/21 12:23:56;;;;;;;3.90;2.10;;;24.70;95.30;;;;;;5010368;28;20428;-76
2023/07/21 12:26:22;;;;;;;3.17;2.13;;;24.70;94.80;;;;;;5012021;28;20427;-76
2023/07/21 12:28:53;;;;;;;4.00;2.35;;;24.40;94.40;;;;;;5010078;28;20436;-76
2023/07/21 12:31:20;;;;;;;4.18;2.60;;;24.20;93.60;;;;;;5010829;28;20539;-76
2023/07/21 12:33:47;;;;;;;3.58;2.20;;;24.00;94.40;;;;;;5023336;28;20465;-74
2023/07/21 12:36:14;;;;;;;6.80;3.60;;;22.00;94.90;;;;;;5002707;28;20453;-74
2023/07/21 12:38:44;;;;;;;5.33;2.83;;;21.70;99.90;;;;;;5006732;28;20464;-75
2023/07/21 12:41:10;;;;;;;5.90;2.40;;;21.30;99.90;;;;;;4989372;28;20456;-75
2023/07/21 12:43:37;;;;;;;4.15;2.20;;;20.40;99.90;;;;;;4990733;28;20498;-76
2023/07/21 12:46:03;;;;;;;5.25;2.67;;;19.40;99.90;;;;;;5006984;28;20976;-76
2023/07/21 12:48:30;;;;;;;5.88;3.10;;;18.70;99.90;;;;;;5005760;28;20420;-76
2023/07/21 12:51:00;;;;;;;5.27;3.17;;;17.80;99.90;;;;;;5007164;28;20435;-77
2023/07/21 12:53:27;;;;;;;5.10;2.90;;;17.00;99.90;;;;;;5010377;28;20405;-76
2023/07/21 12:55:54;;;;;;;5.70;2.95;;;16.90;99.90;;;;;;5006792;28;20939;-74
2023/07/21 12:58:22;;;;;;;4.93;2.58;;;16.80;99.90;;;;;;5010648;28;20405;-75
2023/07/21 13:00:48;;;;;;;3.80;2.40;;;16.70;99.90;;;;;;5007763;28;20918;-75